Time;durP1;ratioP1;P1;durP2;ratioP2;P2;SDS_P1;SDS_P2;PMS_P1;PMS_P2;Temp;Humidity;BMP_temperature;BMP_pressure;BME280_temperature;BME280_humidity;BME280_pressure;Samples;Min_cycle;Max_cycle;Signal;HPM_P1;HPM_P2
2022/12/15 00:39:37;;;;;;;6.43;4.50;;;;;;;-143.84;99.14;43984.81;5111151;28;20985;-73
2022/12/15 00:42:04;;;;;;;11.37;4.53;;;;;;;-143.84;100.00;43981.00;5110981;28;20445;-73
2022/12/15 00:44:31;;;;;;;13.60;5.60;;;;;;;-143.84;100.00;44034.31;5111039;28;20439;-73
2022/12/15 00:46:57;;;;;;;9.77;6.10;;;;;;;-143.84;100.00;44043.81;5110683;28;20449;-73
2022/12/15 01:22:28;;;;;;;18.03;5.37;;;;;;;-143.84;100.00;44059.03;5110350;28;20425;-73
2022/12/15 01:24:55;;;;;;;8.53;3.70;;;;;;;-143.84;99.57;44049.53;5110500;28;20519;-73
2022/12/15 01:27:22;;;;;;;12.53;3.97;;;;;;;-143.84;99.27;44022.88;5110367;28;20438;-73
2022/12/15 01:29:49;;;;;;;15.17;3.60;;;;;;;-143.84;99.23;44001.94;5110210;28;20433;-73
2022/12/15 01:32:16;;;;;;;15.10;4.77;;;;;;;-143.84;99.34;44013.38;5110346;28;20483;-73
2022/12/15 01:34:44;;;;;;;6.20;3.77;;;;;;;-143.84;99.21;44015.25;5109939;28;20510;-73
2022/12/15 01:37:11;;;;;;;25.83;4.70;;;;;;;-143.84;99.21;44034.31;5110234;28;20449;-73
2022/12/15 01:42:23;;;;;;;13.77;4.23;;;;;;;-143.84;99.99;44049.53;5109970;28;21061;-73
2022/12/15 01:44:52;;;;;;;14.33;4.13;;;;;;;-143.84;100.00;44053.34;5109959;28;20442;-73
2022/12/15 01:47:23;;;;;;;19.97;3.60;;;;;;;-143.84;100.00;44057.16;5109671;28;20479;-73
2022/12/15 01:49:56;;;;;;;11.73;4.13;;;;;;;-143.84;100.00;44057.16;5109797;28;20445;-73
2022/12/15 01:52:23;;;;;;;11.43;3.80;;;;;;;-143.84;100.00;44085.69;5109750;28;20896;-73
2022/12/15 01:54:57;;;;;;;6.53;3.50;;;;;;;-143.84;100.00;44081.88;5109656;28;20433;-73
2022/12/15 01:57:29;;;;;;;6.33;3.77;;;;;;;-143.84;100.00;44095.22;5109609;28;20519;-73
2022/12/15 02:00:00;;;;;;;19.10;4.50;;;;;;;-143.84;100.00;44083.78;5109061;28;20562;-73
2022/12/15 02:02:30;;;;;;;21.60;4.63;;;;;;;-143.84;100.00;44106.63;5109100;28;20449;-73
2022/12/15 02:05:00;;;;;;;17.30;4.50;;;;;;;-143.84;100.00;44106.63;5109306;28;20474;-73
2022/12/15 02:07:27;;;;;;;10.60;3.90;;;;;;;-143.84;100.00;44106.63;5109342;28;20437;-73
2022/12/15 02:10:00;;;;;;;17.17;3.47;;;;;;;-143.84;100.00;44104.72;5109509;28;20453;-74
2022/12/15 02:12:37;;;;;;;10.57;4.33;;;;;;;-143.84;100.00;44127.56;5109443;28;21247;-73
2022/12/15 02:15:17;;;;;;;10.97;4.23;;;;;;;-143.84;100.00;44125.69;5109522;28;20454;-73
2022/12/15 02:17:54;;;;;;;10.33;4.20;;;;;;;-143.84;100.00;44133.28;5109214;28;20525;-73
2022/12/15 02:20:53;;;;;;;23.60;5.13;;;;;;;-143.84;100.00;44148.53;5109244;28;20893;-73
2022/12/15 02:23:56;;;;;;;19.50;4.17;;;;;;;-143.84;100.00;44152.31;5108550;28;20499;-73
2022/12/15 02:27:00;;;;;;;21.60;8.20;;;;;;;-143.84;100.00;44167.56;5108352;28;20453;-73
2022/12/15 02:30:14;;;;;;;15.97;7.10;;;;;;;-143.84;100.00;44190.41;5109402;28;20452;-74
2022/12/15 02:32:47;;;;;;;9.93;4.50;;;;;;;-143.84;100.00;44211.34;5101143;28;20449;-74
2022/12/15 02:35:21;;;;;;;18.00;5.50;;;;;;;-143.84;100.00;44228.47;5109249;28;20449;-74
2022/12/15 02:37:48;;;;;;;26.97;4.67;;;;;;;-143.84;100.00;44253.22;5109162;28;20437;-73
2022/12/15 02:40:16;;;;;;;33.03;5.90;;;;;;;-143.84;100.00;44277.97;5108953;28;20510;-73
2022/12/15 02:42:47;;;;;;;17.07;6.00;;;;;;;-143.84;100.00;44295.09;5109208;28;20442;-73
2022/12/15 02:45:19;;;;;;;23.03;5.10;;;;;;;-143.84;100.00;44317.94;5109098;28;20937;-74
2022/12/15 02:47:58;;;;;;;17.17;5.03;;;;;;;-143.84;100.00;44361.72;5108849;28;20520;-74
2022/12/15 02:50:48;;;;;;;14.20;5.27;;;;;;;-143.84;100.00;44392.19;5108868;28;20511;-74
2022/12/15 02:53:34;;;;;;;12.67;5.20;;;;;;;-143.84;100.00;44418.84;5108919;28;20566;-74
2022/12/15 02:56:09;;;;;;;53.47;6.13;;;;;;;-143.84;100.00;44435.97;5108783;28;20449;-73
2022/12/15 02:58:44;;;;;;;35.67;7.20;;;;;;;-143.84;100.00;44455.03;5108767;28;20481;-74
2022/12/15 03:01:18;;;;;;;16.70;5.80;;;;;;;-143.84;100.00;44464.53;5108940;28;21175;-74
2022/12/15 03:03:48;;;;;;;93.77;10.97;;;;;;;-143.84;100.00;44472.16;5108929;28;21296;-74
2022/12/15 03:06:16;;;;;;;173.27;14.60;;;;;;;-143.84;100.00;44477.88;5108836;28;20442;-73
2022/12/15 03:08:43;;;;;;;398.40;22.83;;;;;;;-143.84;100.00;44481.69;5108743;28;20425;-73
2022/12/15 03:11:10;;;;;;;195.90;14.07;;;;;;;-143.84;100.00;44487.38;5108946;28;21149;-74
2022/12/15 03:13:37;;;;;;;268.93;17.80;;;;;;;-143.84;100.00;44491.19;5109091;28;20435;-74
2022/12/15 03:16:04;;;;;;;596.80;35.30;;;;;;;-143.84;100.00;44493.09;5112647;28;20982;-74
2022/12/15 03:18:33;;;;;;;33.60;7.30;;;;;;;-143.84;100.00;44493.09;5112444;28;20502;-74
2022/12/15 03:21:00;;;;;;;117.70;12.67;;;;;;;-143.84;100.00;44495.00;5112494;28;20442;-74
2022/12/15 03:23:27;;;;;;;132.00;13.33;;;;;;;-143.84;100.00;44495.00;5112481;28;20900;-74
2022/12/15 03:25:55;;;;;;;270.30;20.97;;;;;;;-143.84;100.00;44495.00;5112771;28;20503;-74
2022/12/15 03:28:22;;;;;;;422.17;32.07;;;;;;;-143.84;100.00;44491.19;5112574;28;21035;-75
2022/12/15 03:30:49;;;;;;;26.07;9.30;;;;;;;-143.84;100.00;44500.72;5112249;28;20952;-74
2022/12/15 03:33:17;;;;;;;26.67;9.67;;;;;;;-143.84;100.00;44495.00;5112251;28;20446;-74
2022/12/15 03:35:45;;;;;;;42.63;11.50;;;;;;;-143.84;100.00;44491.19;5112084;28;20503;-74
2022/12/15 03:38:12;;;;;;;21.93;10.27;;;;;;;-143.84;100.00;44489.28;5112231;28;20442;-74
2022/12/15 03:40:39;;;;;;;25.30;10.50;;;;;;;-143.84;100.00;44491.19;5112171;28;20966;-74
2022/12/15 03:43:07;;;;;;;25.03;11.80;;;;;;;-143.84;100.00;44491.19;5112500;28;20441;-74
2022/12/15 03:45:34;;;;;;;33.80;11.20;;;;;;;-143.84;100.00;44489.28;5112044;28;20434;-74
2022/12/15 03:48:01;;;;;;;22.10;11.17;;;;;;;-143.84;100.00;44487.38;5111997;28;20441;-74
2022/12/15 03:50:29;;;;;;;18.70;10.50;;;;;;;-143.84;100.00;44477.88;5112270;28;20434;-72
2022/12/15 03:52:59;;;;;;;27.07;11.40;;;;;;;-143.84;100.00;44472.16;5111843;28;20442;-74
2022/12/15 03:55:28;;;;;;;32.13;10.67;;;;;;;-143.84;100.00;44462.63;5112104;28;20446;-74
2022/12/15 03:57:56;;;;;;;21.87;11.83;;;;;;;-143.84;100.00;44458.81;5112289;28;20442;-74
2022/12/15 04:00:24;;;;;;;22.33;12.13;;;;;;;-143.84;100.00;44458.81;5111628;28;20497;-74
2022/12/15 04:02:51;;;;;;;31.30;12.47;;;;;;;-143.84;100.00;44464.53;5112096;28;20425;-74
2022/12/15 04:05:21;;;;;;;23.77;13.93;;;;;;;-143.84;100.00;44470.25;5098090;28;20447;-74
2022/12/15 04:07:48;;;;;;;30.67;15.57;;;;;;;-143.84;100.00;44466.44;5111610;28;20495;-74
2022/12/15 04:10:17;;;;;;;38.33;15.90;;;;;;;-143.84;100.00;44475.97;5111705;28;20503;-74
2022/12/15 04:12:44;;;;;;;52.03;17.07;;;;;;;-143.84;100.00;44481.69;5111703;28;20451;-74
2022/12/15 04:15:12;;;;;;;66.93;18.90;;;;;;;-143.84;100.00;44481.69;5111495;28;20837;-74
2022/12/15 04:17:39;;;;;;;110.63;18.93;;;;;;;-143.84;100.00;44485.47;5111733;28;20499;-74
2022/12/15 04:20:09;;;;;;;387.67;33.43;;;;;;;-143.84;100.00;44487.38;5111222;28;20538;-74
2022/12/15 04:22:37;;;;;;;218.07;25.77;;;;;;;-143.84;100.00;44491.19;5111499;28;20446;-74
2022/12/15 05:33:55;;;;;;;42.53;19.20;;;;;;;-143.84;100.00;44485.47;5110012;28;20437;-74
2022/12/15 05:36:22;;;;;;;35.83;20.90;;;;;;;-143.84;100.00;44487.38;5109828;28;20446;-71
2022/12/15 05:38:49;;;;;;;23.27;17.53;;;;;;;-143.84;100.00;44487.38;5110252;28;20845;-73
2022/12/15 05:41:18;;;;;;;35.13;17.87;;;;;;;-143.84;100.00;44485.47;5110154;28;20475;-72
2022/12/15 05:43:45;;;;;;;30.03;18.33;;;;;;;-143.84;100.00;44481.69;5110116;28;20964;-71
2022/12/15 05:46:13;;;;;;;30.83;20.70;;;;;;;-143.84;100.00;44481.69;5113168;27;20448;-76
2022/12/15 05:48:40;;;;;;;31.80;19.97;;;;;;;-143.84;100.00;44479.78;5130979;27;20444;-72
2022/12/15 05:51:10;;;;;;;31.97;19.70;;;;;;;-143.84;100.00;44483.56;5130655;27;20455;-75
2022/12/15 05:53:39;;;;;;;44.73;19.80;;;;;;;-143.84;100.00;44479.78;5131297;27;20971;-75
2022/12/15 05:56:08;;;;;;;29.13;18.50;;;;;;;-143.84;100.00;44475.97;5130829;27;20958;-75
2022/12/15 05:58:35;;;;;;;25.70;17.07;;;;;;;-143.84;100.00;44475.97;5130973;27;20456;-75
2022/12/15 06:01:07;;;;;;;28.33;18.40;;;;;;;-143.84;100.00;44472.16;5130586;27;20560;-75
2022/12/15 06:03:35;;;;;;;29.43;19.80;;;;;;;-143.84;100.00;44470.25;5131117;27;20433;-75
2022/12/15 06:06:02;;;;;;;37.97;21.30;;;;;;;-143.84;100.00;44462.63;5130332;27;20452;-75
2022/12/15 06:08:32;;;;;;;24.57;17.40;;;;;;;-143.84;100.00;44460.72;5130302;27;20986;-75
2022/12/15 06:11:00;;;;;;;33.73;21.17;;;;;;;-143.84;100.00;44458.81;5130326;27;20444;-75
2022/12/15 06:13:30;;;;;;;32.53;22.87;;;;;;;-143.84;100.00;44451.22;5130617;27;20496;-75
2022/12/15 06:15:58;;;;;;;34.17;21.03;;;;;;;-143.84;100.00;44456.94;5130641;27;20481;-75
2022/12/15 06:18:28;;;;;;;34.37;20.67;;;;;;;-143.84;100.00;44458.81;5130787;27;20452;-75
2022/12/15 06:20:59;;;;;;;35.20;21.83;;;;;;;-143.84;100.00;44451.22;5130666;27;20488;-75
2022/12/15 06:23:27;;;;;;;34.23;19.73;;;;;;;-143.84;100.00;44451.22;5130925;28;20502;-75
2022/12/15 06:25:56;;;;;;;33.10;22.20;;;;;;;-143.84;100.00;44449.31;5130455;28;20964;-75
2022/12/15 06:28:24;;;;;;;30.17;21.20;;;;;;;-143.84;100.00;44445.50;5130305;27;20449;-75
2022/12/15 06:30:52;;;;;;;28.10;17.80;;;;;;;-143.84;100.00;44430.28;5130082;27;20449;-75
2022/12/15 06:33:19;;;;;;;37.77;21.20;;;;;;;-143.84;100.00;44428.38;5129381;28;20445;-73
2022/12/15 06:35:47;;;;;;;33.70;21.63;;;;;;;-143.84;100.00;44420.75;5129570;28;20432;-73
2022/12/15 06:38:14;;;;;;;30.60;18.90;;;;;;;-143.84;100.00;44418.84;5129417;28;20432;-73
2022/12/15 06:40:41;;;;;;;31.93;21.70;;;;;;;-143.84;100.00;44409.34;5129367;28;20485;-73
2022/12/15 06:43:10;;;;;;;28.10;21.30;;;;;;;-143.84;100.00;44415.03;5129394;28;20444;-73
2022/12/15 06:45:37;;;;;;;44.23;20.40;;;;;;;-143.84;100.00;44413.13;5129440;28;21015;-73
2022/12/15 06:48:05;;;;;;;38.87;23.33;;;;;;;-143.84;100.00;44409.34;5129475;28;20447;-73
2022/12/15 06:50:32;;;;;;;32.93;21.43;;;;;;;-143.84;100.00;44411.22;5132841;27;20973;-73
2022/12/15 06:53:00;;;;;;;32.10;21.30;;;;;;;-143.84;100.00;44409.34;5133120;27;20452;-73
2022/12/15 06:55:27;;;;;;;29.97;21.00;;;;;;;-143.84;100.00;44392.19;5133054;27;20444;-73
2022/12/15 06:57:54;;;;;;;43.20;20.40;;;;;;;-143.84;100.00;44388.38;5132977;27;20979;-73
2022/12/15 07:00:23;;;;;;;36.27;22.20;;;;;;;-143.84;100.00;44386.47;5133044;27;20497;-73
2022/12/15 07:02:50;;;;;;;32.20;21.30;;;;;;;-143.84;100.00;44367.44;5133265;27;20441;-73
2022/12/15 07:05:17;;;;;;;36.80;20.60;;;;;;;-143.84;100.00;44350.31;5133145;27;20445;-73
2022/12/15 07:07:45;;;;;;;33.27;21.23;;;;;;;-143.84;100.00;44342.69;5133049;27;20448;-73
2022/12/15 07:10:12;;;;;;;29.10;21.60;;;;;;;-143.84;100.00;44340.78;5133097;27;20937;-73
2022/12/15 07:12:39;;;;;;;34.43;24.30;;;;;;;-143.84;100.00;44335.09;5133109;27;20440;-73
2022/12/15 07:15:08;;;;;;;42.93;27.93;;;;;;;-143.84;100.00;44344.59;5133111;27;20475;-73
2022/12/15 07:17:37;;;;;;;37.90;22.73;;;;;;;-143.84;100.00;44336.97;5133303;27;20557;-73
2022/12/15 07:20:05;;;;;;;37.10;25.60;;;;;;;-143.84;100.00;44317.94;5133156;27;20487;-73
2022/12/15 07:22:32;;;;;;;41.07;25.77;;;;;;;-143.84;100.00;44321.75;5132887;27;20437;-73
2022/12/15 07:25:00;;;;;;;36.07;26.53;;;;;;;-143.84;100.00;44329.38;5132790;27;20448;-73
2022/12/15 07:27:27;;;;;;;37.93;25.23;;;;;;;-143.84;100.00;44329.38;5133099;27;20803;-73
2022/12/15 07:29:54;;;;;;;43.93;25.90;;;;;;;-143.84;100.00;44319.84;5133001;27;20449;-73
2022/12/15 07:32:21;;;;;;;36.90;24.43;;;;;;;-143.84;100.00;44319.84;5132903;27;20434;-73
2022/12/15 07:34:50;;;;;;;38.23;24.53;;;;;;;-143.84;100.00;44317.94;5132902;27;20477;-73
2022/12/15 07:37:17;;;;;;;39.93;25.50;;;;;;;-143.84;100.00;44308.44;5132710;27;20485;-73
2022/12/15 07:39:44;;;;;;;35.90;23.80;;;;;;;-143.84;100.00;44291.28;5132789;27;20877;-73
2022/12/15 07:42:11;;;;;;;28.60;20.73;;;;;;;-143.84;100.00;44272.25;5132508;27;20445;-73
2022/12/15 07:44:38;;;;;;;31.53;20.70;;;;;;;-143.84;100.00;44253.22;5132544;27;20763;-73
2022/12/15 07:47:05;;;;;;;27.70;20.40;;;;;;;-143.84;99.92;44234.19;5132465;27;20441;-73
2022/12/15 07:49:33;;;;;;;34.17;19.50;;;;;;;-143.84;99.46;44199.91;5132387;27;20433;-73
2022/12/15 07:52:01;;;;;;;32.83;19.33;;;;;;;-143.84;99.18;44196.13;5132482;27;20438;-73
2022/12/15 07:54:29;;;;;;;26.53;19.93;;;;;;;-143.84;99.13;44198.00;5132365;27;20871;-73
2022/12/15 07:56:56;;;;;;;28.80;19.20;;;;;;;-143.84;98.66;44190.41;5132463;27;20540;-73
2022/12/15 07:59:23;;;;;;;34.10;18.60;;;;;;;-143.84;98.37;44178.97;5132340;27;21281;-73
2022/12/15 08:01:51;;;;;;;34.80;19.73;;;;;;;-143.84;98.26;44169.47;5131249;27;20550;-73
2022/12/15 08:04:18;;;;;;;28.60;19.63;;;;;;;-143.84;98.49;44167.56;5132218;27;20514;-73
2022/12/15 08:06:45;;;;;;;24.73;19.10;;;;;;;-143.84;98.27;44173.25;5132422;27;20882;-73
2022/12/15 08:09:14;;;;;;;34.83;21.97;;;;;;;-143.84;98.24;44171.38;5132252;27;20452;-73
2022/12/15 08:11:41;;;;;;;30.60;21.40;;;;;;;-143.84;98.36;44167.56;5131988;27;20438;-73
2022/12/15 08:14:09;;;;;;;29.87;20.63;;;;;;;-143.84;98.28;44165.66;5131888;27;20445;-73
2022/12/15 08:16:36;;;;;;;36.00;22.53;;;;;;;-143.84;98.34;44169.47;5131779;27;20448;-73
2022/12/15 08:19:04;;;;;;;31.20;20.80;;;;;;;-143.84;98.17;44169.47;5131531;27;20434;-73
2022/12/15 08:21:31;;;;;;;29.73;22.20;;;;;;;-143.84;97.82;44150.41;5131786;27;20481;-73
2022/12/15 08:23:59;;;;;;;30.97;22.27;;;;;;;-143.84;97.55;44156.13;5131819;27;20954;-73
2022/12/15 08:26:28;;;;;;;31.13;21.83;;;;;;;-143.84;97.15;44142.81;5131901;27;20809;-73
2022/12/15 08:28:56;;;;;;;38.50;24.37;;;;;;;-143.84;96.73;44137.09;5131739;27;20461;-73
2022/12/15 08:31:24;;;;;;;35.90;24.30;;;;;;;-143.84;96.78;44148.53;5131571;27;20518;-73
2022/12/15 08:33:52;;;;;;;31.80;21.20;;;;;;;-143.84;96.66;44114.25;5131249;27;20791;-73
2022/12/15 08:36:20;;;;;;;33.00;21.83;;;;;;;-143.84;96.58;44146.63;5131495;27;20970;-73
2022/12/15 08:38:48;;;;;;;34.50;24.00;;;;;;;-143.84;96.96;44137.09;5131248;27;20434;-70
2022/12/15 08:41:18;;;;;;;39.27;24.47;;;;;;;-143.84;96.50;44125.69;5130733;27;20481;-70
2022/12/15 08:43:47;;;;;;;36.80;24.57;;;;;;;-143.84;96.35;44114.25;5131352;27;20442;-70
2022/12/15 08:46:14;;;;;;;35.70;25.23;;;;;;;-143.84;96.50;44127.56;5131649;27;20422;-71
2022/12/15 08:48:41;;;;;;;31.40;24.23;;;;;;;-143.84;96.17;44133.28;5131208;27;20438;-70
2022/12/15 08:51:09;;;;;;;35.67;25.27;;;;;;;-143.84;95.59;44106.63;5090569;28;20448;-71
2022/12/15 08:53:37;;;;;;;32.67;24.20;;;;;;;-143.84;94.73;44097.13;5090391;28;20470;-70
2022/12/15 08:56:05;;;;;;;32.53;24.53;;;;;;;-143.84;94.19;44081.88;5090463;28;20537;-70
2022/12/15 08:58:32;;;;;;;32.83;23.60;;;;;;;-143.84;93.66;44059.03;5090647;28;20474;-70
2022/12/15 09:01:06;;;;;;;31.53;22.23;;;;;;;-143.84;93.20;44047.63;5090433;28;21255;-70
2022/12/15 09:03:34;;;;;;;33.93;23.77;;;;;;;-143.84;93.20;44066.66;5090440;28;20998;-70
2022/12/15 09:06:02;;;;;;;25.80;20.70;;;;;;;-143.84;93.05;44051.44;5090319;28;20429;-70
2022/12/15 09:08:30;;;;;;;28.77;20.57;;;;;;;-143.84;91.81;44015.25;5090019;28;20467;-70
2022/12/15 09:10:58;;;;;;;37.73;22.27;;;;;;;-143.84;91.63;43996.22;5090077;28;20520;-70
2022/12/15 09:13:25;;;;;;;35.00;22.67;;;;;;;-143.84;91.43;43981.00;5089869;28;20821;-70
2022/12/15 09:15:56;;;;;;;25.43;20.27;;;;;;;-143.84;91.23;43986.72;5090096;28;20508;-70
2022/12/15 09:18:25;;;;;;;23.27;18.30;;;;;;;-143.84;91.68;43982.91;5089757;28;20436;-70
2022/12/15 09:20:52;;;;;;;16.53;13.93;;;;;;;-143.84;91.18;43990.53;5089535;28;20476;-70
2022/12/15 09:23:20;;;;;;;12.10;9.17;;;;;;;-143.84;90.58;43984.81;5089466;28;20438;-70
2022/12/15 09:25:47;;;;;;;11.30;8.20;;;;;;;-143.84;89.90;43941.03;5089297;28;20488;-70
2022/12/15 09:28:14;;;;;;;8.77;7.93;;;;;;;-143.84;89.04;43929.59;5089541;28;20443;-70
2022/12/15 09:30:42;;;;;;;8.10;7.30;;;;;;;-143.84;88.80;43922.00;5090480;28;20441;-72
2022/12/15 09:33:09;;;;;;;8.57;7.67;;;;;;;-143.84;89.26;43933.41;5090158;28;20461;-72
2022/12/15 09:35:37;;;;;;;7.63;6.90;;;;;;;-143.84;89.35;43942.94;5090130;28;20514;-72
2022/12/15 09:38:04;;;;;;;8.93;7.13;;;;;;;-143.84;89.44;43944.84;5090176;28;20949;-72
2022/12/15 09:40:32;;;;;;;7.30;6.60;;;;;;;-143.84;89.81;43942.94;5093266;28;20475;-72
2022/12/15 09:42:59;;;;;;;6.93;6.33;;;;;;;-143.84;89.24;43937.22;5111020;28;20474;-72
2022/12/15 09:45:36;;;;;;;10.10;7.60;;;;;;;-143.84;89.64;43941.03;5110363;28;20443;-72
2022/12/15 09:48:08;;;;;;;9.93;8.07;;;;;;;-143.84;90.10;43933.41;5110309;28;20843;-72
2022/12/15 09:50:39;;;;;;;10.80;8.97;;;;;;;-143.84;89.90;43956.25;5109934;28;20504;-72
2022/12/15 09:53:11;;;;;;;7.57;6.87;;;;;;;-143.84;90.18;43971.47;5110161;28;20850;-72
2022/12/15 09:55:38;;;;;;;11.97;6.93;;;;;;;-143.84;89.91;43950.53;5108279;28;20535;-72
2022/12/15 09:58:15;;;;;;;6.67;6.00;;;;;;;-143.84;89.21;43929.59;5109752;28;20440;-72
2022/12/15 10:00:49;;;;;;;6.37;5.57;;;;;;;-143.84;88.04;43933.41;5109700;28;20479;-72
2022/12/15 10:03:40;;;;;;;5.40;4.80;;;;;;;-143.84;88.23;43902.97;5110322;28;20452;-72
2022/12/15 10:06:11;;;;;;;7.27;5.07;;;;;;;-143.84;87.54;43883.91;5109704;28;20435;-72
2022/12/15 10:08:44;;;;;;;8.60;6.93;;;;;;;-143.84;88.19;43901.06;5109557;28;20446;-72
2022/12/15 10:11:20;;;;;;;7.17;6.43;;;;;;;-143.84;86.58;43864.88;5109761;28;20590;-72
2022/12/15 10:13:53;;;;;;;4.70;4.40;;;;;;;-143.84;85.40;43864.88;5110049;28;20445;-74
2022/12/15 10:16:28;;;;;;;5.17;4.77;;;;;;;-143.84;84.70;43868.69;5109471;28;20810;-75
2022/12/15 10:19:02;;;;;;;5.80;5.20;;;;;;;-143.84;83.06;43901.06;5109483;28;20430;-74
2022/12/15 10:21:32;;;;;;;5.97;5.40;;;;;;;-143.84;82.98;43929.59;5109459;28;20966;-74
2022/12/15 10:24:10;;;;;;;8.43;6.77;;;;;;;-143.84;82.75;43994.31;5108423;28;20541;-74
2022/12/15 10:26:38;;;;;;;9.50;7.10;;;;;;;-143.84;79.91;44470.25;5109456;28;20527;-74
2022/12/15 10:29:26;;;;;;;14.13;7.23;;;;;;;-143.84;77.57;44860.56;5109264;28;21096;-73
2022/12/15 10:31:59;;;;;;;10.63;7.40;;;;;;;-143.84;78.02;44803.44;5109125;28;20438;-72
2022/12/15 10:34:28;;;;;;;11.60;6.90;;;;;;;-143.84;77.40;44812.97;5109332;28;20450;-72
2022/12/15 10:36:58;;;;;;;8.50;7.70;;;;;;;-143.84;76.57;44965.28;5109581;28;20450;-72
2022/12/15 10:39:38;;;;;;;7.60;6.90;;;;;;;-143.84;75.00;45071.91;5109320;28;20940;-72
2022/12/15 10:42:20;;;;;;;10.97;7.43;;;;;;;-143.84;73.25;45115.72;5109102;28;20517;-73
2022/12/15 10:44:49;;;;;;;8.03;6.80;;;;;;;-143.84;73.31;45144.28;5109176;28;20502;-72
2022/12/15 10:47:21;;;;;;;15.17;7.33;;;;;;;-143.84;73.87;45090.97;5108938;28;20442;-72
2022/12/15 10:49:49;;;;;;;7.40;6.70;;;;;;;-143.84;75.46;45030.03;5109924;28;20968;-73
2022/12/15 10:52:23;;;;;;;11.03;7.20;;;;;;;-143.84;75.68;45049.06;5109336;28;20451;-72
2022/12/15 10:54:52;;;;;;;14.43;8.50;;;;;;;-143.84;74.47;45106.19;5109173;28;20442;-72
2022/12/15 10:57:23;;;;;;;14.87;8.60;;;;;;;-143.84;75.13;45066.22;5109082;28;20778;-72
2022/12/15 10:59:51;;;;;;;16.90;9.27;;;;;;;-143.84;75.39;45090.97;5108375;28;20488;-72
2022/12/15 11:02:35;;;;;;;14.23;8.83;;;;;;;-143.84;74.51;45102.38;5109169;28;20838;-72
2022/12/15 11:05:06;;;;;;;12.47;8.87;;;;;;;-143.84;75.73;45075.72;5109026;28;20443;-72
2022/12/15 11:07:38;;;;;;;12.97;9.00;;;;;;;-143.84;76.00;45041.44;5108555;28;20435;-74
2022/12/15 11:10:19;;;;;;;7.50;6.40;;;;;;;-143.84;75.52;45073.81;5108827;28;20454;-72
2022/12/15 11:12:54;;;;;;;6.10;5.50;;;;;;;-143.84;73.02;45119.53;5108969;28;20447;-75
2022/12/15 11:15:50;;;;;;;8.73;5.40;;;;;;;-143.84;72.16;45127.13;5110365;28;20431;-72
2022/12/15 11:18:32;;;;;;;5.40;4.90;;;;;;;-143.84;73.14;45146.19;5062270;28;20442;-72
2022/12/15 11:21:05;;;;;;;5.50;5.00;;;;;;;-143.84;72.50;45148.09;5109341;28;21121;-72
2022/12/15 11:23:52;;;;;;;5.00;4.60;;;;;;;-143.84;72.00;45169.03;5109287;28;20441;-72
2022/12/15 11:26:47;;;;;;;6.47;4.90;;;;;;;-143.84;71.68;45155.69;5109799;28;20450;-72
2022/12/15 11:29:37;;;;;;;5.73;5.33;;;;;;;-143.84;71.20;45174.75;5107160;28;20439;-70
2022/12/15 11:32:05;;;;;;;5.87;5.27;;;;;;;-143.84;72.18;45148.09;5110035;28;20983;-71
2022/12/15 11:34:37;;;;;;;5.87;5.37;;;;;;;-143.84;72.09;45170.94;5110193;28;20438;-71
2022/12/15 11:37:23;;;;;;;5.73;5.33;;;;;;;-143.84;72.81;45146.19;5114390;28;21325;-71
2022/12/15 11:40:05;;;;;;;6.67;5.80;;;;;;;-143.84;73.75;45161.41;5114164;28;20449;-71
2022/12/15 11:42:44;;;;;;;6.33;5.60;;;;;;;-143.84;73.19;45115.72;5112122;28;20603;-71
2022/12/15 11:45:21;;;;;;;6.93;6.23;;;;;;;-143.84;73.52;45140.47;5114089;28;20493;-71
2022/12/15 11:47:52;;;;;;;6.57;5.97;;;;;;;-143.84;73.59;45151.91;5114357;28;20438;-72
2022/12/15 11:50:29;;;;;;;6.40;5.47;;;;;;;-143.84;72.74;45144.28;5114391;28;20985;-72
2022/12/15 11:53:18;;;;;;;7.83;7.03;;;;;;;-143.84;73.02;45150.00;5114669;28;20423;-72
2022/12/15 11:55:57;;;;;;;7.53;6.83;;;;;;;-143.84;73.70;45163.31;5113616;28;20513;-72
2022/12/15 11:58:53;;;;;;;7.70;6.80;;;;;;;-143.84;74.52;45136.66;5114138;28;20454;-71
2022/12/15 12:01:43;;;;;;;7.73;6.97;;;;;;;-143.84;73.47;45157.59;5114228;28;20495;-72
2022/12/15 12:04:20;;;;;;;7.40;6.70;;;;;;;-143.84;73.33;45153.81;5114666;28;20930;-72
2022/12/15 12:07:02;;;;;;;7.73;6.90;;;;;;;-143.84;73.68;45142.38;5114636;28;20430;-72
2022/12/15 12:09:34;;;;;;;7.33;6.73;;;;;;;-143.84;74.21;45165.22;5114339;28;20437;-71
2022/12/15 12:12:26;;;;;;;8.73;6.10;;;;;;;-143.84;74.29;45119.53;5114511;28;20435;-72
2022/12/15 12:15:04;;;;;;;5.73;5.23;;;;;;;-143.84;74.55;45125.22;5114247;28;20517;-71
2022/12/15 12:17:41;;;;;;;9.30;5.97;;;;;;;-143.84;74.18;45125.22;5112274;28;20449;-70
2022/12/15 12:20:15;;;;;;;6.40;5.90;;;;;;;-143.84;74.59;45144.28;5112463;28;20498;-71
2022/12/15 12:22:48;;;;;;;6.90;6.20;;;;;;;-143.84;74.31;45096.66;5111899;28;20474;-71
2022/12/15 12:25:20;;;;;;;6.50;5.80;;;;;;;-143.84;73.01;45174.75;5112000;28;20449;-70
2022/12/15 12:27:55;;;;;;;6.87;5.20;;;;;;;-143.84;72.47;45169.03;5113698;28;20436;-69
2022/12/15 12:30:25;;;;;;;6.30;5.10;;;;;;;-143.84;72.85;45159.50;5113845;28;20430;-69
2022/12/15 12:33:00;;;;;;;6.50;6.00;;;;;;;-143.84;72.96;45115.72;5114844;28;20435;-69
2022/12/15 12:35:37;;;;;;;5.67;5.17;;;;;;;-143.84;72.76;45172.84;5114170;28;20441;-69
2022/12/15 12:38:06;;;;;;;5.13;4.63;;;;;;;-143.84;72.15;45169.03;5114106;28;20518;-69
2022/12/15 12:40:46;;;;;;;6.20;5.67;;;;;;;-143.84;72.31;45184.25;5114250;28;20430;-69
2022/12/15 12:43:30;;;;;;;6.27;5.67;;;;;;;-143.84;73.02;45144.28;5113760;28;20474;-69
2022/12/15 12:46:02;;;;;;;7.03;6.43;;;;;;;-143.84;73.53;45159.50;5112260;28;20536;-69
2022/12/15 12:48:34;;;;;;;8.63;6.63;;;;;;;-143.84;73.84;45134.75;5110403;28;20457;-69
2022/12/15 12:51:27;;;;;;;9.17;8.30;;;;;;;-143.84;74.72;45136.66;5111038;28;20534;-69
2022/12/15 12:53:55;;;;;;;6.30;5.70;;;;;;;-143.84;74.23;45159.50;5096408;28;20521;-69
2022/12/15 12:56:35;;;;;;;8.07;5.57;;;;;;;-143.84;74.13;45134.75;5111026;28;20838;-69
2022/12/15 12:59:25;;;;;;;6.57;6.03;;;;;;;-143.84;74.26;45142.38;5110465;28;20495;-69
2022/12/15 13:01:55;;;;;;;7.97;7.17;;;;;;;-143.84;74.62;45144.28;5110509;28;20489;-69
2022/12/15 13:04:40;;;;;;;8.60;6.97;;;;;;;-143.84;74.10;45153.81;5110358;28;20472;-69
2022/12/15 13:07:29;;;;;;;10.63;8.30;;;;;;;-143.84;74.04;45150.00;5110601;28;20437;-69
2022/12/15 13:10:12;;;;;;;10.47;8.50;;;;;;;-143.84;74.12;45136.66;5110240;28;20441;-69
2022/12/15 13:12:48;;;;;;;8.80;7.90;;;;;;;-143.84;73.93;45167.13;5110441;28;20453;-69
2022/12/15 13:15:31;;;;;;;8.93;8.00;;;;;;;-143.84;74.34;45136.66;5110620;28;20510;-69
2022/12/15 13:18:05;;;;;;;9.70;8.13;;;;;;;-143.84;77.06;45142.38;5110640;28;20462;-67
2022/12/15 13:20:34;;;;;;;10.20;9.23;;;;;;;-143.84;77.71;45108.09;5110336;28;20443;-68
2022/12/15 13:23:37;;;;;;;10.50;9.40;;;;;;;-143.84;77.83;45125.22;5110222;28;20480;-68
2022/12/15 13:26:15;;;;;;;11.00;9.00;;;;;;;-143.84;77.57;45110.00;5110021;28;20436;-67
2022/12/15 13:28:48;;;;;;;13.40;8.70;;;;;;;-143.84;77.80;45140.47;5109092;28;20470;-67
2022/12/15 13:31:40;;;;;;;9.73;8.73;;;;;;;-143.84;77.96;45125.22;5109571;28;20442;-68
2022/12/15 13:34:23;;;;;;;9.77;8.77;;;;;;;-143.84;78.14;45121.44;5109918;28;20455;-67
2022/12/15 13:37:01;;;;;;;9.20;8.27;;;;;;;-143.84;78.28;45138.56;5109839;28;20492;-67
2022/12/15 13:39:59;;;;;;;10.30;9.20;;;;;;;-143.84;78.89;45151.91;5109917;28;20439;-67
2022/12/15 13:42:39;;;;;;;12.80;9.40;;;;;;;-143.84;78.76;45111.91;5110307;28;20522;-67
2022/12/15 13:45:36;;;;;;;12.90;9.60;;;;;;;-143.84;78.90;45110.00;5109919;28;20435;-67
2022/12/15 13:48:18;;;;;;;8.70;7.70;;;;;;;-143.84;78.82;45129.03;5109780;28;20443;-67
2022/12/15 13:50:52;;;;;;;9.10;8.20;;;;;;;-143.84;78.72;45136.66;5109904;28;20446;-67